Marquette, MI

3:15 PM EST on December 17, 2014 (GMT -0500)
Halfway Location | Change Station
CLOSE
Current Station
Personal Weather Station
Location: Big Bay, MI
Elevation: 760 ft
Nearby Weather Stations

Elev 760 ft 46.75 °N, 87.66 °W | Updated 2 seconds ago

Overcast
Overcast
26.2 °F
Feels Like 26 °F
N
0.0
Wind Variable Wind from NW
Gusts 0.0 mph

Today
High -- | Low -- °F
--% Chance of Precip.
Yesterday
High -- | Low -- °F
Precip. -- in
8:30 AM 5:03 PM
Waning Crescent, 20% visible
Pressure 30.05 in
Visibility 3.0 miles
Clouds Mostly Cloudy 1300 ft
Overcast 2000 ft
Windchill 26 °F
Dew Point 23 °F
Humidity 86%
Rainfall 0.00 in
Snow Depth Not available.
UV 0 out of 12
Pollen .10 out of 12
Air Quality Not available.
Flu Activity Not available.
METAR KSAW 171945Z 36013KT 3SM -SN BKN013 OVC020 M04/M05 A3005

More Conditions Fewer Conditions

Pressure 30.05 in
Visibility 3.0 miles
Clouds Mostly Cloudy 1300 ft
Overcast 2000 ft
Windchill 26 °F
Dew Point 23 °F
Humidity 86%
Rainfall 0.00 in
Snow Depth Not available.
UV 0 out of 12
Pollen .10 out of 12
Air Quality Not available.
Flu Activity Not available.
METAR KSAW 171945Z 36013KT 3SM -SN BKN013 OVC020 M04/M05 A3005

More Conditions Fewer Conditions

10-Day Weather Forecast

Almanac

Astronomy

Dec. 17, 2014 Rise Set
Actual Time
Civil Twilight
Nautical Twilight
Astronomical Twilight
Moon
Length of Visible Light
Length of Day
Tomorrow will be .
, % of the Moon is Illuminated

Today's Extremes

State Highs State Lows

Community

WunderPhotos

Upload Photos

1,778,802 photos uploaded!

WunderBlogs® & News

Nearby

Air Quality

  Air Quality AQ Index Pollutant
Not available.

Snow Depth

Station Depth Elevation

Earthquake Activity

City Distance Mag. Time & Date
Minimum magnitude displayed is 2.5.

Coastal Water Temperatures

Place Temperature

Nearby Weather Stations